createdAt,value
2023-04-13T00:00:45.125Z,9.55
2023-04-13T00:03:21.900Z,9.43
2023-04-13T00:05:58.303Z,8.88
2023-04-13T00:08:36.560Z,9.95
2023-04-13T00:11:14.156Z,10.25
2023-04-13T00:13:51.392Z,9.15
2023-04-13T00:16:30.269Z,8.80
2023-04-13T00:19:08.370Z,9.50
2023-04-13T00:21:43.872Z,9.50
2023-04-13T00:24:21.567Z,9.10
2023-04-13T00:26:57.958Z,9.70
2023-04-13T00:29:34.435Z,9.20
2023-04-13T00:32:14.114Z,10.47
2023-04-13T00:34:47.994Z,10.05
2023-04-13T00:37:24.378Z,8.93
2023-04-13T00:40:06.203Z,10.07
2023-04-13T00:42:41.691Z,9.60
2023-04-13T00:45:16.878Z,11.65
2023-04-13T00:47:54.510Z,9.60
2023-04-13T00:50:30.681Z,10.20
2023-04-13T00:53:08.855Z,9.77
2023-04-13T00:55:49.461Z,10.88
2023-04-13T00:58:26.699Z,10.70
2023-04-13T01:01:02.636Z,11.82
2023-04-13T01:03:38.236Z,9.77
2023-04-13T01:06:18.506Z,9.60
2023-04-13T01:08:56.742Z,9.97
2023-04-13T01:11:37.171Z,10.10
2023-04-13T01:14:14.814Z,10.10
2023-04-13T01:16:54.121Z,9.77
2023-04-13T01:19:36.575Z,10.70
2023-04-13T01:22:14.781Z,10.77
2023-04-13T01:24:57.820Z,9.50
2023-04-13T01:27:43.559Z,9.60
2023-04-13T01:30:19.819Z,9.70
2023-04-13T01:32:55.558Z,9.70
2023-04-13T01:35:32.123Z,10.55
2023-04-13T01:38:07.934Z,9.75
2023-04-13T01:40:45.103Z,8.90
2023-04-13T01:43:25.545Z,9.77
2023-04-13T01:46:26.432Z,9.68
2023-04-13T01:49:14.068Z,9.47
2023-04-13T01:51:58.550Z,9.52
2023-04-13T01:54:40.128Z,9.07
2023-04-13T01:57:15.229Z,9.60
2023-04-13T01:59:54.373Z,10.00
2023-04-13T02:02:30.151Z,9.43
2023-04-13T02:05:04.983Z,11.55
2023-04-13T02:07:45.345Z,10.25
2023-04-13T02:10:20.418Z,10.20
2023-04-13T02:12:57.277Z,10.80
2023-04-13T02:15:38.819Z,10.93
2023-04-13T02:18:14.983Z,10.23
2023-04-13T02:20:50.422Z,11.15
2023-04-13T02:23:26.546Z,9.75
2023-04-13T02:28:37.441Z,9.15
2023-04-13T02:31:20.419Z,9.05
2023-04-13T02:33:56.564Z,9.52
2023-04-13T02:36:33.538Z,10.50
2023-04-13T02:39:15.860Z,9.97
2023-04-13T02:41:51.568Z,9.93
2023-04-13T02:44:31.302Z,10.50
2023-04-13T02:47:12.890Z,10.35
2023-04-13T02:49:50.015Z,10.30
2023-04-13T02:52:37.554Z,9.93
2023-04-13T02:55:15.198Z,9.95
2023-04-13T02:57:58.455Z,9.85
2023-04-13T03:00:36.429Z,11.50
2023-04-13T03:03:18.157Z,13.40
2023-04-13T03:05:59.072Z,13.60
2023-04-13T03:08:46.858Z,12.80
2023-04-13T03:11:28.543Z,11.95
2023-04-13T03:14:24.491Z,10.93
2023-04-13T03:17:12.054Z,11.38
2023-04-13T03:19:50.276Z,11.63
2023-04-13T03:22:32.691Z,11.13
2023-04-13T03:25:11.771Z,11.25
2023-04-13T03:27:47.777Z,10.88
2023-04-13T03:30:25.872Z,9.70
2023-04-13T03:33:05.842Z,12.25
2023-04-13T03:35:45.421Z,12.63
2023-04-13T03:38:36.422Z,12.73
2023-04-13T03:41:12.668Z,14.23
2023-04-13T03:43:49.580Z,14.45
2023-04-13T03:46:23.719Z,15.30
2023-04-13T03:48:59.553Z,16.73
2023-04-13T03:51:37.631Z,15.45
2023-04-13T03:56:51.511Z,16.55
2023-04-13T03:59:27.327Z,17.10
2023-04-13T04:02:03.166Z,16.73
2023-04-13T04:04:40.832Z,17.25
2023-04-13T04:07:16.745Z,17.30
2023-04-13T04:09:55.721Z,16.58
2023-04-13T04:12:35.670Z,18.13
2023-04-13T04:15:14.283Z,19.20
2023-04-13T04:17:52.318Z,19.33
2023-04-13T04:20:26.748Z,19.80
2023-04-13T04:23:05.220Z,19.10
2023-04-13T04:25:56.992Z,20.50
2023-04-13T04:28:32.568Z,20.85
2023-04-13T04:31:10.994Z,20.60
2023-04-13T04:33:52.100Z,19.00
2023-04-13T04:36:29.117Z,19.42
2023-04-13T04:39:08.234Z,20.40
2023-04-13T04:42:03.250Z,20.10
2023-04-13T04:44:40.373Z,19.48
2023-04-13T04:47:19.970Z,19.83
2023-04-13T04:50:21.892Z,19.42
2023-04-13T04:53:03.834Z,22.35
2023-04-13T04:55:41.250Z,20.60
2023-04-13T04:58:26.618Z,20.58
2023-04-13T05:01:04.327Z,23.25
2023-04-13T05:03:41.530Z,20.75
2023-04-13T05:06:33.189Z,21.75
2023-04-13T05:09:10.424Z,21.50
2023-04-13T05:11:49.038Z,21.40
2023-04-13T05:14:30.388Z,29.23
2023-04-13T05:17:09.432Z,37.90
2023-04-13T05:19:46.845Z,28.05
2023-04-13T05:22:33.445Z,25.17
2023-04-13T05:25:16.668Z,20.48
2023-04-13T05:27:54.960Z,22.33
2023-04-13T05:30:35.923Z,21.92
2023-04-13T05:33:14.322Z,20.60
2023-04-13T05:35:50.935Z,21.70
2023-04-13T05:41:04.860Z,22.48
2023-04-13T05:43:46.457Z,23.67
2023-04-13T05:46:25.698Z,22.85
2023-04-13T05:49:02.213Z,22.52
2023-04-13T05:51:42.459Z,33.08
2023-04-13T05:54:18.952Z,25.10
2023-04-13T05:56:57.233Z,26.85
2023-04-13T05:59:32.895Z,22.33
2023-04-13T06:02:15.190Z,20.95
2023-04-13T06:04:54.232Z,63.20
2023-04-13T06:07:30.022Z,24.15
2023-04-13T06:10:04.885Z,19.77
2023-04-13T06:12:42.932Z,20.33
2023-04-13T06:15:20.990Z,19.92
2023-04-13T06:17:56.440Z,20.50
2023-04-13T06:20:38.119Z,19.65
2023-04-13T06:23:14.559Z,18.17
2023-04-13T06:25:52.572Z,20.77
2023-04-13T06:28:38.440Z,20.20
2023-04-13T06:31:18.110Z,19.35
2023-04-13T06:33:57.356Z,19.67
2023-04-13T06:36:41.946Z,17.52
2023-04-13T06:39:21.871Z,18.02
2023-04-13T06:42:06.103Z,18.80
2023-04-13T06:45:02.617Z,18.63
2023-04-13T06:47:46.013Z,21.85
2023-04-13T06:50:24.295Z,21.92
2023-04-13T06:53:02.775Z,22.15
2023-04-13T06:55:38.672Z,22.05
2023-04-13T06:58:14.241Z,19.05
2023-04-13T07:00:52.198Z,20.40
2023-04-13T07:03:29.512Z,17.95
2023-04-13T07:06:07.990Z,18.50
2023-04-13T07:08:52.290Z,20.60
2023-04-13T07:11:29.895Z,20.30
2023-04-13T07:14:05.582Z,21.23
2023-04-13T07:16:42.970Z,21.52
2023-04-13T07:19:20.868Z,21.00
2023-04-13T07:22:00.525Z,20.63
2023-04-13T07:24:40.306Z,20.77
2023-04-13T07:27:22.538Z,20.95
2023-04-13T07:29:58.503Z,19.02
2023-04-13T07:32:39.452Z,20.13
2023-04-13T07:35:18.141Z,18.65
2023-04-13T07:37:54.476Z,19.05
2023-04-13T07:40:36.266Z,17.95
2023-04-13T07:43:14.798Z,18.42
2023-04-13T07:45:53.077Z,20.05
2023-04-13T07:48:30.142Z,22.40
2023-04-13T07:51:20.911Z,19.70
2023-04-13T07:53:58.173Z,21.37
2023-04-13T07:56:40.974Z,21.70
2023-04-13T07:59:18.792Z,28.15
2023-04-13T08:01:54.962Z,26.05
2023-04-13T08:04:32.789Z,26.20
2023-04-13T08:07:10.031Z,20.95
2023-04-13T08:09:49.020Z,21.75
2023-04-13T08:12:28.345Z,20.38
2023-04-13T08:15:05.377Z,21.83
2023-04-13T08:17:42.293Z,20.48
2023-04-13T08:20:18.976Z,21.58
2023-04-13T08:22:57.691Z,22.40
2023-04-13T08:25:32.701Z,22.35
2023-04-13T08:28:11.946Z,21.83
2023-04-13T08:30:48.143Z,20.42
2023-04-13T08:33:23.842Z,19.98
2023-04-13T08:35:59.300Z,19.13
2023-04-13T08:38:44.144Z,17.15
2023-04-13T08:41:22.484Z,15.97
2023-04-13T08:44:07.103Z,15.33
2023-04-13T08:46:51.223Z,11.93
2023-04-13T08:49:33.905Z,9.93
2023-04-13T08:52:23.437Z,9.70
2023-04-13T08:55:04.294Z,9.80
2023-04-13T08:57:39.199Z,9.90
2023-04-13T09:00:22.261Z,9.93
2023-04-13T09:03:05.352Z,10.45
2023-04-13T09:05:44.827Z,10.07
2023-04-13T09:08:21.931Z,11.55
2023-04-13T09:11:03.651Z,10.57
2023-04-13T09:13:38.262Z,12.60
2023-04-13T09:16:17.539Z,16.50
2023-04-13T09:18:59.640Z,18.25
2023-04-13T09:21:40.037Z,15.82
2023-04-13T09:24:17.316Z,13.68
2023-04-13T09:26:52.875Z,11.80
2023-04-13T09:29:29.951Z,12.17
2023-04-13T09:32:11.682Z,11.85
2023-04-13T09:34:48.753Z,11.98
2023-04-13T09:37:25.379Z,11.50
2023-04-13T09:40:00.606Z,11.55
2023-04-13T09:42:41.072Z,11.90
2023-04-13T09:45:17.620Z,11.63
2023-04-13T09:48:00.966Z,12.10
2023-04-13T09:50:37.756Z,12.15
2023-04-13T09:53:16.475Z,8.50
2023-04-13T09:56:02.006Z,11.60
2023-04-13T09:58:40.199Z,11.40
2023-04-13T10:01:15.904Z,11.57
2023-04-13T10:03:55.252Z,11.02
2023-04-13T10:06:30.007Z,10.75
2023-04-13T10:09:06.980Z,9.90
2023-04-13T10:11:42.778Z,9.05
2023-04-13T10:14:20.140Z,8.77
2023-04-13T10:17:10.843Z,9.80
2023-04-13T10:19:51.738Z,10.67
2023-04-13T10:22:27.566Z,9.68
2023-04-13T10:25:03.642Z,8.40
2023-04-13T10:27:40.302Z,8.10
2023-04-13T10:30:22.065Z,7.32
2023-04-13T10:33:08.863Z,7.97
2023-04-13T10:35:59.139Z,6.60
2023-04-13T10:38:35.101Z,7.20
2023-04-13T10:41:11.883Z,7.32
2023-04-13T10:43:47.952Z,7.80
2023-04-13T10:49:02.179Z,2.95
2023-04-13T10:51:46.706Z,1.83
2023-04-13T10:54:23.380Z,1.30
2023-04-13T10:57:02.081Z,1.85
2023-04-13T11:02:24.577Z,1.70
2023-04-13T11:05:00.742Z,1.45
2023-04-13T11:07:41.896Z,0.90
2023-04-13T11:10:17.244Z,0.70
2023-04-13T11:12:55.699Z,1.02
2023-04-13T11:15:34.708Z,1.10
2023-04-13T11:18:11.154Z,0.93
2023-04-13T11:20:47.142Z,0.93
2023-04-13T11:26:05.091Z,0.85
2023-04-13T11:28:40.202Z,0.80
2023-04-13T11:31:15.943Z,1.27
2023-04-13T11:33:53.002Z,1.35
2023-04-13T11:36:30.813Z,0.90
2023-04-13T11:39:11.208Z,0.80
2023-04-13T11:41:47.626Z,0.70
2023-04-13T11:44:24.222Z,2.00
2023-04-13T11:47:00.219Z,1.60
2023-04-13T11:52:13.497Z,1.38
2023-04-13T11:54:54.704Z,1.10
2023-04-13T11:57:32.365Z,1.38
2023-04-13T12:00:15.918Z,1.30
2023-04-13T12:03:01.274Z,1.40
2023-04-13T12:05:39.338Z,1.67
2023-04-13T12:08:15.475Z,1.53
2023-04-13T12:13:52.268Z,1.40
2023-04-13T12:19:27.407Z,1.83
2023-04-13T12:22:07.066Z,1.60
2023-04-13T12:24:45.595Z,1.77
2023-04-13T12:27:27.272Z,2.35
2023-04-13T12:30:01.484Z,2.08
2023-04-13T12:32:38.573Z,2.20
2023-04-13T12:35:14.756Z,1.38
2023-04-13T12:37:57.110Z,1.35
2023-04-13T12:40:33.271Z,1.10
2023-04-13T12:43:11.668Z,1.00
2023-04-13T12:45:47.725Z,1.53
2023-04-13T12:51:01.269Z,0.60
2023-04-13T12:53:39.191Z,0.60
2023-04-13T12:56:16.175Z,0.50
2023-04-13T12:58:54.586Z,0.85
2023-04-13T13:01:30.490Z,0.40
2023-04-13T13:06:44.058Z,0.52
2023-04-13T13:09:21.700Z,0.30
2023-04-13T13:12:05.008Z,0.50
2023-04-13T13:14:38.757Z,0.85
2023-04-13T13:17:18.334Z,0.47
2023-04-13T13:19:55.069Z,0.68
2023-04-13T13:22:31.073Z,0.30
2023-04-13T13:25:07.563Z,0.35
2023-04-13T13:28:10.324Z,0.60
2023-04-13T13:30:43.407Z,0.40
2023-04-13T13:33:22.319Z,0.50
2023-04-13T13:35:57.809Z,0.40
2023-04-13T13:38:35.830Z,0.40
2023-04-13T13:41:14.897Z,0.50
2023-04-13T13:43:51.026Z,0.60
2023-04-13T13:46:27.847Z,0.50
2023-04-13T13:49:08.232Z,0.57
2023-04-13T13:52:03.876Z,1.20
2023-04-13T13:54:45.338Z,0.50
2023-04-13T13:57:21.501Z,0.50
2023-04-13T14:02:36.642Z,0.60
2023-04-13T14:05:16.757Z,0.50
2023-04-13T14:07:56.681Z,0.60
2023-04-13T14:10:33.123Z,0.60
2023-04-13T14:13:08.776Z,0.50
2023-04-13T14:15:47.004Z,0.55
2023-04-13T14:18:24.515Z,0.63
2023-04-13T14:21:03.112Z,0.75
2023-04-13T14:23:40.981Z,0.60
2023-04-13T14:26:16.817Z,0.70
2023-04-13T14:28:56.904Z,0.40
2023-04-13T14:31:32.533Z,0.82
2023-04-13T14:34:07.930Z,0.80
2023-04-13T14:36:49.142Z,0.60
2023-04-13T14:39:26.458Z,0.50
2023-04-13T14:42:02.012Z,0.82
2023-04-13T14:44:40.113Z,0.70
2023-04-13T14:47:16.237Z,0.70
2023-04-13T14:50:06.780Z,0.90
2023-04-13T14:52:49.294Z,1.15
2023-04-13T14:55:27.948Z,1.20
2023-04-13T14:58:05.674Z,1.30
2023-04-13T15:00:43.090Z,1.00
2023-04-13T15:03:20.204Z,1.25
2023-04-13T15:06:03.313Z,1.52
2023-04-13T15:08:46.763Z,1.80
2023-04-13T15:11:22.660Z,1.45
2023-04-13T15:13:58.076Z,1.40
2023-04-13T15:16:36.527Z,0.83
2023-04-13T15:19:13.783Z,0.90
2023-04-13T15:21:49.987Z,1.13
2023-04-13T15:24:31.023Z,1.33
2023-04-13T15:27:07.613Z,1.57
2023-04-13T15:29:43.166Z,1.75
2023-04-13T15:32:20.035Z,1.57
2023-04-13T15:34:56.923Z,1.52
2023-04-13T15:37:33.428Z,1.40
2023-04-13T15:40:15.511Z,2.05
2023-04-13T15:42:51.388Z,2.13
2023-04-13T15:45:26.887Z,5.00
2023-04-13T15:48:07.423Z,2.35
2023-04-13T15:50:50.683Z,2.80
2023-04-13T15:53:29.099Z,2.55
2023-04-13T15:56:07.140Z,3.53
2023-04-13T15:58:42.220Z,2.72
2023-04-13T16:01:18.026Z,2.20
2023-04-13T16:03:55.142Z,3.13
2023-04-13T16:06:29.990Z,2.90
2023-04-13T16:09:10.930Z,3.13
2023-04-13T16:11:51.372Z,3.22
2023-04-13T16:14:28.221Z,4.75
2023-04-13T16:19:40.060Z,3.28
2023-04-13T16:22:17.153Z,3.40
2023-04-13T16:24:54.137Z,3.40
2023-04-13T16:27:35.566Z,4.20
2023-04-13T16:30:14.628Z,5.05
2023-04-13T16:32:53.274Z,6.95
2023-04-13T16:35:31.018Z,4.70
2023-04-13T16:38:10.862Z,5.35
2023-04-13T16:40:47.738Z,4.63
2023-04-13T16:43:30.076Z,4.80
2023-04-13T16:46:08.116Z,5.72
2023-04-13T16:48:47.933Z,5.65
2023-04-13T16:51:23.793Z,5.57
2023-04-13T16:56:37.390Z,5.93
2023-04-13T16:59:16.777Z,4.18
2023-04-13T17:01:55.891Z,4.45
2023-04-13T17:04:32.658Z,4.30
2023-04-13T17:07:09.610Z,4.10
2023-04-13T17:09:47.204Z,3.50
2023-04-13T17:12:24.170Z,3.90
2023-04-13T17:15:06.097Z,3.95
2023-04-13T17:17:46.719Z,4.22
2023-04-13T17:20:24.232Z,4.07
2023-04-13T17:23:06.787Z,3.45
2023-04-13T17:25:42.755Z,3.28
2023-04-13T17:28:22.365Z,2.95
2023-04-13T17:31:02.614Z,3.65
2023-04-13T17:33:37.421Z,2.92
2023-04-13T17:36:13.596Z,3.33
2023-04-13T17:38:52.552Z,3.30
2023-04-13T17:41:34.363Z,3.15
2023-04-13T17:44:11.826Z,3.15
2023-04-13T17:46:51.964Z,2.75
2023-04-13T17:49:31.782Z,2.80
2023-04-13T17:52:09.505Z,2.55
2023-04-13T17:54:45.038Z,2.85
2023-04-13T17:57:21.161Z,3.33
2023-04-13T17:59:59.897Z,3.50
2023-04-13T18:02:34.702Z,3.50
2023-04-13T18:05:16.317Z,3.10
2023-04-13T18:07:53.125Z,4.57
2023-04-13T18:10:31.547Z,4.40
2023-04-13T18:13:11.073Z,3.85
2023-04-13T18:15:50.958Z,4.30
2023-04-13T18:18:27.525Z,5.25
2023-04-13T18:21:06.686Z,5.95
2023-04-13T18:23:42.881Z,7.03
2023-04-13T18:28:53.716Z,5.70
2023-04-13T18:31:34.472Z,5.33
2023-04-13T18:34:13.192Z,4.97
2023-04-13T18:36:52.011Z,4.70
2023-04-13T18:39:28.587Z,4.85
2023-04-13T18:42:03.926Z,4.65
2023-04-13T18:44:40.492Z,4.65
2023-04-13T18:47:16.503Z,5.07
2023-04-13T18:49:57.257Z,3.95
2023-04-13T18:52:38.709Z,4.55
2023-04-13T18:55:15.592Z,4.53
2023-04-13T18:57:53.855Z,4.30
2023-04-13T19:00:29.718Z,4.40
2023-04-13T19:03:06.271Z,4.78
2023-04-13T19:05:47.946Z,4.45
2023-04-13T19:08:27.832Z,4.10
2023-04-13T19:11:04.886Z,4.55
2023-04-13T19:13:40.300Z,4.10
2023-04-13T19:16:15.865Z,4.95
2023-04-13T19:18:53.072Z,5.20
2023-04-13T19:21:30.199Z,5.45
2023-04-13T19:24:12.224Z,5.18
2023-04-13T19:26:50.716Z,4.28
2023-04-13T19:29:30.426Z,4.60
2023-04-13T19:32:10.603Z,5.38
2023-04-13T19:34:46.748Z,4.40
2023-04-13T19:37:25.872Z,5.38
2023-04-13T19:40:07.020Z,4.93
2023-04-13T19:42:42.261Z,5.47
2023-04-13T19:45:18.183Z,4.20
2023-04-13T19:47:56.972Z,5.33
2023-04-13T19:50:32.741Z,5.57
2023-04-13T19:53:10.937Z,5.28
2023-04-13T19:55:50.667Z,5.28
2023-04-13T19:58:29.421Z,6.17
2023-04-13T20:01:07.738Z,5.40
2023-04-13T20:03:44.849Z,6.10
2023-04-13T20:06:22.897Z,5.47
2023-04-13T20:09:11.294Z,6.22
2023-04-13T20:11:51.076Z,6.18
2023-04-13T20:14:27.902Z,5.80
2023-04-13T20:17:05.453Z,5.95
2023-04-13T20:19:42.144Z,7.10
2023-04-13T20:22:19.436Z,7.20
2023-04-13T20:24:55.699Z,7.10
2023-04-13T20:27:38.233Z,8.10
2023-04-13T20:30:15.549Z,8.30
2023-04-13T20:32:53.544Z,8.77
2023-04-13T20:35:33.024Z,8.88
2023-04-13T20:38:09.469Z,9.70
2023-04-13T20:43:25.011Z,8.40
2023-04-13T20:46:01.462Z,9.07
2023-04-13T20:51:19.725Z,9.65
2023-04-13T20:53:55.970Z,8.68
2023-04-13T20:56:32.390Z,10.57
2023-04-13T20:59:11.895Z,8.82
2023-04-13T21:01:49.450Z,9.68
2023-04-13T21:04:26.598Z,8.47
2023-04-13T21:07:02.574Z,10.18
2023-04-13T21:12:15.914Z,7.10
2023-04-13T21:14:55.124Z,8.18
2023-04-13T21:17:31.289Z,8.60
2023-04-13T21:20:09.885Z,8.60
2023-04-13T21:22:47.436Z,6.43
2023-04-13T21:25:25.724Z,8.68
2023-04-13T21:28:03.775Z,7.15
2023-04-13T21:30:46.640Z,8.15
2023-04-13T21:33:25.854Z,8.27
2023-04-13T21:38:44.682Z,10.52
2023-04-13T21:41:19.890Z,11.27
2023-04-13T21:43:56.165Z,12.35
2023-04-13T21:49:09.415Z,10.63
2023-04-13T21:51:47.196Z,9.50
2023-04-13T21:54:20.833Z,12.15
2023-04-13T21:56:58.017Z,10.10
2023-04-13T21:59:34.610Z,9.95
2023-04-13T22:02:15.544Z,10.43
2023-04-13T22:04:52.237Z,8.93
2023-04-13T22:07:41.340Z,8.35
2023-04-13T22:10:19.766Z,9.02
2023-04-13T22:12:57.909Z,8.57
2023-04-13T22:15:36.275Z,9.40
2023-04-13T22:18:15.396Z,8.50
2023-04-13T22:20:52.555Z,9.50
2023-04-13T22:23:28.173Z,10.38
2023-04-13T22:26:06.755Z,10.10
2023-04-13T22:28:43.998Z,8.82
2023-04-13T22:31:19.413Z,7.78
2023-04-13T22:33:58.229Z,6.03
2023-04-13T22:36:36.957Z,7.07
2023-04-13T22:39:12.897Z,7.05
2023-04-13T22:41:49.025Z,7.28
2023-04-13T22:46:59.728Z,8.17
2023-04-13T22:49:40.870Z,8.80
2023-04-13T22:52:16.309Z,6.57
2023-04-13T22:54:53.768Z,4.78
2023-04-13T22:57:29.891Z,4.47
2023-04-13T23:00:05.979Z,4.57
2023-04-13T23:02:41.371Z,5.15
2023-04-13T23:05:22.162Z,5.47
2023-04-13T23:07:59.595Z,5.80
2023-04-13T23:10:35.685Z,7.18
2023-04-13T23:15:48.471Z,7.03
2023-04-13T23:18:24.999Z,6.78
2023-04-13T23:21:12.450Z,8.97
2023-04-13T23:23:48.490Z,5.88
2023-04-13T23:29:02.482Z,7.07
2023-04-13T23:34:11.859Z,6.63
2023-04-13T23:36:50.348Z,6.00
2023-04-13T23:39:26.379Z,6.95
2023-04-13T23:42:01.290Z,5.35
2023-04-13T23:44:36.690Z,6.03
2023-04-13T23:47:11.463Z,4.68
2023-04-13T23:49:49.471Z,6.57
2023-04-13T23:52:27.992Z,6.20
2023-04-13T23:55:06.137Z,5.33
2023-04-13T23:57:41.735Z,5.18
